sensor_id;sensor_type;location;lat;lon;timestamp;P1;durP1;ratioP1;P2;durP2;ratioP2
16391;SDS011;8305;-33.882;151.134;2023-12-07T00:02:17;12.35;;;3.70;;
16391;SDS011;8305;-33.882;151.134;2023-12-07T00:04:47;10.65;;;4.13;;
16391;SDS011;8305;-33.882;151.134;2023-12-07T00:07:18;11.93;;;4.28;;
16391;SDS011;8305;-33.882;151.134;2023-12-07T00:09:49;10.27;;;4.00;;
16391;SDS011;8305;-33.882;151.134;2023-12-07T00:12:20;13.48;;;4.20;;
16391;SDS011;8305;-33.882;151.134;2023-12-07T00:14:50;10.52;;;3.97;;
16391;SDS011;8305;-33.882;151.134;2023-12-07T00:17:23;11.98;;;4.20;;
16391;SDS011;8305;-33.882;151.134;2023-12-07T00:19:54;10.90;;;3.97;;
16391;SDS011;8305;-33.882;151.134;2023-12-07T00:22:25;10.93;;;4.00;;
16391;SDS011;8305;-33.882;151.134;2023-12-07T00:24:55;11.20;;;3.95;;
16391;SDS011;8305;-33.882;151.134;2023-12-07T00:27:26;10.07;;;3.92;;
16391;SDS011;8305;-33.882;151.134;2023-12-07T00:29:58;9.93;;;3.97;;
16391;SDS011;8305;-33.882;151.134;2023-12-07T00:32:37;12.23;;;4.55;;
16391;SDS011;8305;-33.882;151.134;2023-12-07T00:35:09;15.32;;;5.35;;
16391;SDS011;8305;-33.882;151.134;2023-12-07T00:37:41;13.93;;;4.90;;
16391;SDS011;8305;-33.882;151.134;2023-12-07T00:40:11;14.45;;;4.90;;
16391;SDS011;8305;-33.882;151.134;2023-12-07T00:42:42;17.15;;;5.40;;
16391;SDS011;8305;-33.882;151.134;2023-12-07T00:45:13;16.52;;;5.43;;
16391;SDS011;8305;-33.882;151.134;2023-12-07T00:47:46;14.35;;;5.47;;
16391;SDS011;8305;-33.882;151.134;2023-12-07T00:50:17;17.13;;;5.70;;
16391;SDS011;8305;-33.882;151.134;2023-12-07T00:52:47;17.73;;;5.60;;
16391;SDS011;8305;-33.882;151.134;2023-12-07T00:55:18;18.05;;;5.70;;
16391;SDS011;8305;-33.882;151.134;2023-12-07T00:57:49;16.15;;;5.18;;
16391;SDS011;8305;-33.882;151.134;2023-12-07T01:00:20;13.40;;;5.13;;
16391;SDS011;8305;-33.882;151.134;2023-12-07T01:02:52;15.70;;;5.85;;
16391;SDS011;8305;-33.882;151.134;2023-12-07T01:05:23;15.32;;;5.75;;
16391;SDS011;8305;-33.882;151.134;2023-12-07T01:07:54;17.83;;;5.95;;
16391;SDS011;8305;-33.882;151.134;2023-12-07T01:10:25;19.17;;;6.20;;
16391;SDS011;8305;-33.882;151.134;2023-12-07T01:12:56;15.55;;;6.07;;
16391;SDS011;8305;-33.882;151.134;2023-12-07T01:15:27;18.45;;;5.90;;
16391;SDS011;8305;-33.882;151.134;2023-12-07T01:18:00;17.15;;;5.50;;
16391;SDS011;8305;-33.882;151.134;2023-12-07T01:20:30;20.95;;;6.57;;
16391;SDS011;8305;-33.882;151.134;2023-12-07T01:23:01;15.35;;;5.22;;
16391;SDS011;8305;-33.882;151.134;2023-12-07T01:25:32;14.65;;;5.25;;
16391;SDS011;8305;-33.882;151.134;2023-12-07T01:28:03;16.48;;;6.07;;
16391;SDS011;8305;-33.882;151.134;2023-12-07T01:30:33;15.52;;;5.75;;
16391;SDS011;8305;-33.882;151.134;2023-12-07T01:33:06;21.00;;;6.18;;
16391;SDS011;8305;-33.882;151.134;2023-12-07T01:35:37;16.08;;;5.90;;
16391;SDS011;8305;-33.882;151.134;2023-12-07T01:38:09;16.67;;;5.38;;
16391;SDS011;8305;-33.882;151.134;2023-12-07T01:40:40;15.93;;;5.82;;
16391;SDS011;8305;-33.882;151.134;2023-12-07T01:43:10;18.35;;;5.82;;
16391;SDS011;8305;-33.882;151.134;2023-12-07T01:45:41;14.40;;;5.50;;
16391;SDS011;8305;-33.882;151.134;2023-12-07T01:48:14;17.10;;;6.20;;
16391;SDS011;8305;-33.882;151.134;2023-12-07T01:50:45;14.40;;;5.63;;
16391;SDS011;8305;-33.882;151.134;2023-12-07T01:53:16;19.42;;;5.57;;
16391;SDS011;8305;-33.882;151.134;2023-12-07T01:55:47;14.13;;;5.45;;
16391;SDS011;8305;-33.882;151.134;2023-12-07T01:58:19;16.05;;;5.78;;
16391;SDS011;8305;-33.882;151.134;2023-12-07T02:00:50;16.75;;;5.75;;
16391;SDS011;8305;-33.882;151.134;2023-12-07T02:03:23;18.00;;;5.80;;
16391;SDS011;8305;-33.882;151.134;2023-12-07T02:05:56;15.23;;;5.88;;
16391;SDS011;8305;-33.882;151.134;2023-12-07T02:08:29;13.25;;;5.15;;
16391;SDS011;8305;-33.882;151.134;2023-12-07T02:10:59;18.15;;;5.53;;
16391;SDS011;8305;-33.882;151.134;2023-12-07T02:13:31;16.67;;;5.75;;
16391;SDS011;8305;-33.882;151.134;2023-12-07T02:16:01;13.43;;;5.90;;
16391;SDS011;8305;-33.882;151.134;2023-12-07T02:18:39;15.57;;;5.90;;
16391;SDS011;8305;-33.882;151.134;2023-12-07T02:21:22;19.65;;;6.63;;
16391;SDS011;8305;-33.882;151.134;2023-12-07T02:23:59;14.48;;;5.32;;
16391;SDS011;8305;-33.882;151.134;2023-12-07T02:26:34;19.98;;;5.90;;
16391;SDS011;8305;-33.882;151.134;2023-12-07T02:29:05;14.20;;;5.13;;
16391;SDS011;8305;-33.882;151.134;2023-12-07T02:31:36;14.70;;;5.25;;
16391;SDS011;8305;-33.882;151.134;2023-12-07T02:34:07;12.13;;;4.60;;
16391;SDS011;8305;-33.882;151.134;2023-12-07T02:36:38;13.52;;;4.75;;
16391;SDS011;8305;-33.882;151.134;2023-12-07T02:39:11;12.52;;;4.90;;
16391;SDS011;8305;-33.882;151.134;2023-12-07T02:41:44;23.23;;;5.20;;
16391;SDS011;8305;-33.882;151.134;2023-12-07T02:44:16;17.40;;;5.05;;
16391;SDS011;8305;-33.882;151.134;2023-12-07T02:46:47;15.40;;;5.00;;
16391;SDS011;8305;-33.882;151.134;2023-12-07T02:49:18;16.38;;;4.68;;
16391;SDS011;8305;-33.882;151.134;2023-12-07T02:51:49;13.48;;;4.97;;
16391;SDS011;8305;-33.882;151.134;2023-12-07T02:54:20;13.93;;;4.43;;
16391;SDS011;8305;-33.882;151.134;2023-12-07T02:56:53;13.55;;;4.45;;
16391;SDS011;8305;-33.882;151.134;2023-12-07T02:59:23;17.20;;;4.70;;
16391;SDS011;8305;-33.882;151.134;2023-12-07T03:01:54;13.52;;;4.43;;
16391;SDS011;8305;-33.882;151.134;2023-12-07T03:04:25;12.65;;;4.70;;
16391;SDS011;8305;-33.882;151.134;2023-12-07T03:06:55;13.48;;;4.75;;
16391;SDS011;8305;-33.882;151.134;2023-12-07T03:09:26;16.13;;;5.00;;
16391;SDS011;8305;-33.882;151.134;2023-12-07T03:11:59;13.43;;;4.80;;
16391;SDS011;8305;-33.882;151.134;2023-12-07T03:14:30;18.25;;;4.68;;
16391;SDS011;8305;-33.882;151.134;2023-12-07T03:17:01;17.45;;;5.70;;
16391;SDS011;8305;-33.882;151.134;2023-12-07T03:19:31;15.48;;;5.03;;
16391;SDS011;8305;-33.882;151.134;2023-12-07T03:22:06;14.60;;;5.60;;
16391;SDS011;8305;-33.882;151.134;2023-12-07T03:24:37;18.67;;;7.05;;
16391;SDS011;8305;-33.882;151.134;2023-12-07T03:27:11;15.88;;;7.32;;
16391;SDS011;8305;-33.882;151.134;2023-12-07T03:29:41;18.58;;;7.63;;
16391;SDS011;8305;-33.882;151.134;2023-12-07T03:32:12;17.08;;;7.65;;
16391;SDS011;8305;-33.882;151.134;2023-12-07T03:34:43;21.70;;;8.15;;
16391;SDS011;8305;-33.882;151.134;2023-12-07T03:37:14;20.48;;;8.63;;
16391;SDS011;8305;-33.882;151.134;2023-12-07T03:39:45;20.65;;;9.30;;
16391;SDS011;8305;-33.882;151.134;2023-12-07T03:42:17;21.05;;;9.23;;
16391;SDS011;8305;-33.882;151.134;2023-12-07T03:44:48;19.27;;;8.25;;
16391;SDS011;8305;-33.882;151.134;2023-12-07T03:47:19;17.40;;;8.38;;
16391;SDS011;8305;-33.882;151.134;2023-12-07T03:49:50;17.40;;;8.70;;
16391;SDS011;8305;-33.882;151.134;2023-12-07T03:52:20;20.63;;;8.32;;
16391;SDS011;8305;-33.882;151.134;2023-12-07T03:54:51;15.68;;;7.60;;
16391;SDS011;8305;-33.882;151.134;2023-12-07T03:57:24;16.02;;;7.63;;
16391;SDS011;8305;-33.882;151.134;2023-12-07T03:59:55;20.33;;;8.60;;
16391;SDS011;8305;-33.882;151.134;2023-12-07T04:02:25;18.70;;;8.07;;
16391;SDS011;8305;-33.882;151.134;2023-12-07T04:04:59;16.75;;;7.68;;
16391;SDS011;8305;-33.882;151.134;2023-12-07T04:07:30;20.08;;;7.05;;
16391;SDS011;8305;-33.882;151.134;2023-12-07T04:10:00;18.17;;;7.25;;
16391;SDS011;8305;-33.882;151.134;2023-12-07T04:12:34;16.60;;;6.07;;
16391;SDS011;8305;-33.882;151.134;2023-12-07T04:15:05;17.20;;;4.47;;
16391;SDS011;8305;-33.882;151.134;2023-12-07T04:17:36;17.05;;;4.47;;
16391;SDS011;8305;-33.882;151.134;2023-12-07T04:20:07;15.90;;;4.05;;
16391;SDS011;8305;-33.882;151.134;2023-12-07T04:22:39;14.43;;;4.10;;
16391;SDS011;8305;-33.882;151.134;2023-12-07T04:25:10;18.77;;;4.07;;
16391;SDS011;8305;-33.882;151.134;2023-12-07T04:27:43;11.07;;;3.50;;
16391;SDS011;8305;-33.882;151.134;2023-12-07T04:30:14;12.10;;;4.30;;
16391;SDS011;8305;-33.882;151.134;2023-12-07T04:32:44;12.43;;;3.75;;
16391;SDS011;8305;-33.882;151.134;2023-12-07T04:35:15;11.23;;;3.55;;
16391;SDS011;8305;-33.882;151.134;2023-12-07T04:37:46;13.35;;;3.90;;
16391;SDS011;8305;-33.882;151.134;2023-12-07T04:40:17;13.50;;;4.05;;
16391;SDS011;8305;-33.882;151.134;2023-12-07T04:42:49;8.75;;;3.60;;
16391;SDS011;8305;-33.882;151.134;2023-12-07T04:45:20;11.05;;;3.60;;
16391;SDS011;8305;-33.882;151.134;2023-12-07T04:47:51;12.00;;;3.50;;
16391;SDS011;8305;-33.882;151.134;2023-12-07T04:50:23;11.38;;;3.35;;
16391;SDS011;8305;-33.882;151.134;2023-12-07T04:52:54;10.35;;;3.28;;
16391;SDS011;8305;-33.882;151.134;2023-12-07T04:55:23;10.25;;;3.28;;
16391;SDS011;8305;-33.882;151.134;2023-12-07T04:57:56;10.18;;;3.05;;
16391;SDS011;8305;-33.882;151.134;2023-12-07T05:00:27;14.15;;;2.92;;
16391;SDS011;8305;-33.882;151.134;2023-12-07T05:02:58;14.30;;;3.35;;
16391;SDS011;8305;-33.882;151.134;2023-12-07T05:05:28;10.18;;;2.97;;
16391;SDS011;8305;-33.882;151.134;2023-12-07T05:07:59;16.80;;;2.97;;
16391;SDS011;8305;-33.882;151.134;2023-12-07T05:10:30;12.05;;;3.30;;
16391;SDS011;8305;-33.882;151.134;2023-12-07T05:13:03;10.85;;;3.42;;
16391;SDS011;8305;-33.882;151.134;2023-12-07T05:15:34;11.82;;;4.28;;
16391;SDS011;8305;-33.882;151.134;2023-12-07T05:18:04;12.30;;;3.22;;
16391;SDS011;8305;-33.882;151.134;2023-12-07T05:20:35;11.63;;;2.70;;
16391;SDS011;8305;-33.882;151.134;2023-12-07T05:23:06;11.07;;;2.83;;
16391;SDS011;8305;-33.882;151.134;2023-12-07T05:25:37;11.65;;;3.17;;
16391;SDS011;8305;-33.882;151.134;2023-12-07T05:28:09;12.63;;;2.80;;
16391;SDS011;8305;-33.882;151.134;2023-12-07T05:30:40;8.98;;;2.53;;
16391;SDS011;8305;-33.882;151.134;2023-12-07T05:33:11;13.60;;;2.92;;
16391;SDS011;8305;-33.882;151.134;2023-12-07T05:35:42;12.65;;;2.97;;
16391;SDS011;8305;-33.882;151.134;2023-12-07T05:38:13;11.65;;;2.97;;
16391;SDS011;8305;-33.882;151.134;2023-12-07T05:40:44;12.00;;;3.10;;
16391;SDS011;8305;-33.882;151.134;2023-12-07T05:43:17;14.98;;;2.97;;
16391;SDS011;8305;-33.882;151.134;2023-12-07T05:45:47;13.55;;;3.30;;
16391;SDS011;8305;-33.882;151.134;2023-12-07T05:48:18;9.57;;;2.80;;
16391;SDS011;8305;-33.882;151.134;2023-12-07T05:50:49;12.00;;;2.88;;
16391;SDS011;8305;-33.882;151.134;2023-12-07T05:53:20;11.13;;;3.00;;
16391;SDS011;8305;-33.882;151.134;2023-12-07T05:55:50;12.30;;;2.70;;
16391;SDS011;8305;-33.882;151.134;2023-12-07T05:58:23;12.95;;;2.70;;
16391;SDS011;8305;-33.882;151.134;2023-12-07T06:00:54;13.65;;;3.25;;
16391;SDS011;8305;-33.882;151.134;2023-12-07T06:03:26;14.98;;;3.28;;
16391;SDS011;8305;-33.882;151.134;2023-12-07T06:05:57;16.08;;;3.40;;
16391;SDS011;8305;-33.882;151.134;2023-12-07T06:08:28;16.02;;;3.45;;
16391;SDS011;8305;-33.882;151.134;2023-12-07T06:11:00;14.20;;;2.95;;
16391;SDS011;8305;-33.882;151.134;2023-12-07T06:13:33;12.23;;;2.92;;
16391;SDS011;8305;-33.882;151.134;2023-12-07T06:16:04;16.17;;;3.28;;
16391;SDS011;8305;-33.882;151.134;2023-12-07T06:18:36;15.40;;;2.90;;
16391;SDS011;8305;-33.882;151.134;2023-12-07T06:21:07;16.77;;;3.25;;
16391;SDS011;8305;-33.882;151.134;2023-12-07T06:23:38;11.68;;;3.10;;
16391;SDS011;8305;-33.882;151.134;2023-12-07T06:26:16;16.67;;;3.47;;
16391;SDS011;8305;-33.882;151.134;2023-12-07T06:28:50;13.18;;;3.13;;
16391;SDS011;8305;-33.882;151.134;2023-12-07T06:31:21;15.50;;;3.17;;
16391;SDS011;8305;-33.882;151.134;2023-12-07T06:33:52;13.10;;;2.65;;
16391;SDS011;8305;-33.882;151.134;2023-12-07T06:36:23;16.13;;;2.90;;
16391;SDS011;8305;-33.882;151.134;2023-12-07T06:38:54;15.55;;;3.00;;
16391;SDS011;8305;-33.882;151.134;2023-12-07T06:41:26;16.52;;;3.08;;
16391;SDS011;8305;-33.882;151.134;2023-12-07T06:43:59;18.80;;;3.47;;
16391;SDS011;8305;-33.882;151.134;2023-12-07T06:46:30;12.05;;;3.05;;
16391;SDS011;8305;-33.882;151.134;2023-12-07T06:49:01;13.73;;;2.97;;
16391;SDS011;8305;-33.882;151.134;2023-12-07T06:51:33;19.52;;;3.80;;
16391;SDS011;8305;-33.882;151.134;2023-12-07T06:54:04;15.85;;;3.45;;
16391;SDS011;8305;-33.882;151.134;2023-12-07T06:56:35;13.10;;;2.95;;
16391;SDS011;8305;-33.882;151.134;2023-12-07T06:59:08;12.00;;;2.90;;
16391;SDS011;8305;-33.882;151.134;2023-12-07T07:01:39;15.48;;;3.40;;
16391;SDS011;8305;-33.882;151.134;2023-12-07T07:04:10;14.00;;;2.80;;
16391;SDS011;8305;-33.882;151.134;2023-12-07T07:06:42;13.18;;;2.80;;
16391;SDS011;8305;-33.882;151.134;2023-12-07T07:09:14;12.10;;;2.60;;
16391;SDS011;8305;-33.882;151.134;2023-12-07T07:11:46;14.88;;;3.70;;
16391;SDS011;8305;-33.882;151.134;2023-12-07T07:14:20;13.00;;;3.10;;
16391;SDS011;8305;-33.882;151.134;2023-12-07T07:16:51;17.98;;;3.47;;
16391;SDS011;8305;-33.882;151.134;2023-12-07T07:19:22;13.88;;;3.05;;
16391;SDS011;8305;-33.882;151.134;2023-12-07T07:21:53;16.42;;;3.08;;
